createdAt,value
2018-12-17T00:00:37.488Z,1004.83
2018-12-17T00:01:37.536Z,1004.81
2018-12-17T00:02:37.585Z,1004.82
2018-12-17T00:03:37.638Z,1004.82
2018-12-17T00:04:37.686Z,1004.83
2018-12-17T00:05:41.664Z,1004.82
2018-12-17T00:06:37.787Z,1004.81
2018-12-17T00:07:37.839Z,1004.80
2018-12-17T00:08:37.887Z,1004.83
2018-12-17T00:09:37.939Z,1004.82
2018-12-17T00:10:37.991Z,1004.82
2018-12-17T00:11:38.039Z,1004.82
2018-12-17T00:12:38.089Z,1004.84
2018-12-17T00:13:38.140Z,1004.85
2018-12-17T00:14:38.206Z,1004.80
2018-12-17T00:15:38.242Z,1004.82
2018-12-17T00:16:38.291Z,1004.83
2018-12-17T00:17:38.393Z,1004.82
2018-12-17T00:18:38.391Z,1004.86
2018-12-17T00:19:38.443Z,1004.86
2018-12-17T00:20:38.492Z,1004.85
2018-12-17T00:21:38.542Z,1004.84
2018-12-17T00:22:38.594Z,1004.84
2018-12-17T00:23:38.644Z,1004.83
2018-12-17T00:24:38.695Z,1004.77
2018-12-17T00:25:38.745Z,1004.78
2018-12-17T00:26:38.795Z,1004.76
2018-12-17T00:27:38.881Z,1004.82
2018-12-17T00:28:38.895Z,1004.78
2018-12-17T00:29:38.946Z,1004.78
2018-12-17T00:30:38.997Z,1004.77
2018-12-17T00:31:39.046Z,1004.79
2018-12-17T00:32:39.098Z,1004.81
2018-12-17T00:33:39.147Z,1004.82
2018-12-17T00:34:39.198Z,1004.84
2018-12-17T00:35:39.247Z,1004.83
2018-12-17T00:36:39.299Z,1004.86
2018-12-17T00:37:39.348Z,1004.83
2018-12-17T00:38:39.399Z,1004.85
2018-12-17T00:39:39.450Z,1004.84
2018-12-17T00:40:39.500Z,1004.86
2018-12-17T00:41:39.551Z,1004.84
2018-12-17T00:42:39.606Z,1004.88
2018-12-17T00:43:39.651Z,1004.87
2018-12-17T00:44:39.703Z,1004.93
2018-12-17T00:45:39.752Z,1004.93
2018-12-17T00:46:39.803Z,1004.94
2018-12-17T00:47:39.853Z,1004.94
2018-12-17T00:48:39.903Z,1004.94
2018-12-17T00:49:39.954Z,1004.99
2018-12-17T00:50:40.003Z,1004.98
2018-12-17T00:51:40.054Z,1004.98
2018-12-17T00:52:40.105Z,1005.00
2018-12-17T00:53:40.155Z,1004.98
2018-12-17T00:54:40.205Z,1004.97
2018-12-17T00:55:40.255Z,1004.96
2018-12-17T00:56:40.305Z,1004.97
2018-12-17T00:57:40.361Z,1004.98
2018-12-17T00:58:40.408Z,1004.99
2018-12-17T00:59:40.458Z,1004.98
2018-12-17T01:00:40.507Z,1004.99
2018-12-17T01:01:40.561Z,1005.02
2018-12-17T01:02:40.608Z,1005.00
2018-12-17T01:03:40.660Z,1005.02
2018-12-17T01:04:40.709Z,1005.00
2018-12-17T01:05:40.760Z,1004.99
2018-12-17T01:06:40.811Z,1004.97
2018-12-17T01:07:40.865Z,1005.02
2018-12-17T01:08:40.912Z,1005.09
2018-12-17T01:09:40.961Z,1005.08
2018-12-17T01:10:41.013Z,1005.11
2018-12-17T01:11:41.064Z,1005.08
2018-12-17T01:12:41.115Z,1005.07
2018-12-17T01:13:41.164Z,1005.09
2018-12-17T01:14:41.214Z,1005.12
2018-12-17T01:15:41.268Z,1005.14
2018-12-17T01:16:41.315Z,1005.18
2018-12-17T01:17:41.366Z,1005.19
2018-12-17T01:18:41.421Z,1005.17
2018-12-17T01:19:41.469Z,1005.25
2018-12-17T01:20:41.519Z,1005.20
2018-12-17T01:21:41.569Z,1005.23
2018-12-17T01:22:41.620Z,1005.20
2018-12-17T01:23:41.671Z,1005.23
2018-12-17T01:24:41.721Z,1005.26
2018-12-17T01:25:41.774Z,1005.25
2018-12-17T01:26:41.822Z,1005.24
2018-12-17T01:27:41.872Z,1005.26
2018-12-17T01:28:41.923Z,1005.25
2018-12-17T01:29:41.974Z,1005.30
2018-12-17T01:30:42.025Z,1005.25
2018-12-17T01:31:42.075Z,1005.24
2018-12-17T01:32:42.125Z,1005.24
2018-12-17T01:33:42.238Z,1005.22
2018-12-17T01:34:42.229Z,1005.22
2018-12-17T01:35:42.279Z,1005.21
2018-12-17T01:36:42.328Z,1005.28
2018-12-17T01:37:42.378Z,1005.26
2018-12-17T01:38:42.429Z,1005.28
2018-12-17T01:39:42.480Z,1005.30
2018-12-17T01:40:42.530Z,1005.35
2018-12-17T01:41:42.582Z,1005.30
2018-12-17T01:42:42.631Z,1005.28
2018-12-17T01:43:42.683Z,1005.31
2018-12-17T01:44:42.734Z,1005.34
2018-12-17T01:45:42.785Z,1005.35
2018-12-17T01:46:42.836Z,1005.31
2018-12-17T01:47:42.886Z,1005.27
2018-12-17T01:48:42.935Z,1005.32
2018-12-17T01:49:42.987Z,1005.31
2018-12-17T01:50:43.049Z,1005.32
2018-12-17T01:51:43.088Z,1005.37
2018-12-17T01:52:43.138Z,1005.39
2018-12-17T01:53:43.188Z,1005.33
2018-12-17T01:54:43.246Z,1005.36
2018-12-17T01:55:43.290Z,1005.41
2018-12-17T01:56:43.343Z,1005.39
2018-12-17T01:57:43.390Z,1005.37
2018-12-17T01:58:43.443Z,1005.39
2018-12-17T01:59:43.493Z,1005.40
2018-12-17T02:00:43.544Z,1005.40
2018-12-17T02:01:43.594Z,1005.43
2018-12-17T02:02:43.645Z,1005.48
2018-12-17T02:03:43.695Z,1005.48
2018-12-17T02:04:43.746Z,1005.51
2018-12-17T02:05:43.797Z,1005.52
2018-12-17T02:06:43.861Z,1005.49
2018-12-17T02:07:43.898Z,1005.51
2018-12-17T02:08:43.948Z,1005.56
2018-12-17T02:09:43.996Z,1005.53
2018-12-17T02:10:44.048Z,1005.55
2018-12-17T02:11:44.099Z,1005.50
2018-12-17T02:12:44.148Z,1005.47
2018-12-17T02:13:44.200Z,1005.51
2018-12-17T02:14:44.249Z,1005.50
2018-12-17T02:15:44.300Z,1005.47
2018-12-17T02:16:44.349Z,1005.52
2018-12-17T02:17:44.400Z,1005.53
2018-12-17T02:18:44.450Z,1005.55
2018-12-17T02:19:44.501Z,1005.57
2018-12-17T02:20:44.551Z,1005.54
2018-12-17T02:21:44.601Z,1005.53
2018-12-17T02:22:44.653Z,1005.50
2018-12-17T02:23:44.709Z,1005.52
2018-12-17T02:24:44.753Z,1005.48
2018-12-17T02:25:44.804Z,1005.56
2018-12-17T02:26:44.854Z,1005.57
2018-12-17T02:27:44.905Z,1005.60
2018-12-17T02:28:44.955Z,1005.62
2018-12-17T02:29:45.006Z,1005.61
2018-12-17T02:30:45.055Z,1005.68
2018-12-17T02:31:45.106Z,1005.65
2018-12-17T02:32:45.157Z,1005.62
2018-12-17T02:33:45.257Z,1005.65
2018-12-17T02:34:45.260Z,1005.67
2018-12-17T02:35:45.308Z,1005.66
2018-12-17T02:36:45.358Z,1005.69
2018-12-17T02:37:45.412Z,1005.66
2018-12-17T02:38:45.459Z,1005.67
2018-12-17T02:39:45.510Z,1005.71
2018-12-17T02:40:45.559Z,1005.66
2018-12-17T02:41:45.609Z,1005.69
2018-12-17T02:42:45.659Z,1005.70
2018-12-17T02:43:45.711Z,1005.73
2018-12-17T02:44:45.761Z,1005.77
2018-12-17T02:45:45.813Z,1005.77
2018-12-17T02:46:45.868Z,1005.79
2018-12-17T02:47:45.912Z,1005.81
2018-12-17T02:48:45.974Z,1005.81
2018-12-17T02:49:46.012Z,1005.86
2018-12-17T02:50:46.063Z,1005.85
2018-12-17T02:51:46.115Z,1005.86
2018-12-17T02:52:46.162Z,1005.91
2018-12-17T02:53:46.214Z,1005.96
2018-12-17T02:54:46.265Z,1005.89
2018-12-17T02:55:46.314Z,1005.86
2018-12-17T02:56:46.376Z,1005.90
2018-12-17T02:57:46.415Z,1005.86
2018-12-17T02:58:46.466Z,1005.86
2018-12-17T02:59:46.516Z,1005.86
2018-12-17T03:00:46.566Z,1005.82
2018-12-17T03:01:46.617Z,1005.85
2018-12-17T03:02:46.668Z,1005.86
2018-12-17T03:03:46.719Z,1005.87
2018-12-17T03:04:46.769Z,1005.87
2018-12-17T03:05:46.818Z,1005.85
2018-12-17T03:06:46.870Z,1005.87
2018-12-17T03:07:46.922Z,1005.83
2018-12-17T03:08:46.969Z,1005.83
2018-12-17T03:09:47.020Z,1005.84
2018-12-17T03:10:47.071Z,1005.82
2018-12-17T03:11:47.127Z,1005.83
2018-12-17T03:12:47.172Z,1005.81
2018-12-17T03:13:47.223Z,1005.85
2018-12-17T03:14:47.273Z,1005.84
2018-12-17T03:15:47.326Z,1005.85
2018-12-17T03:16:47.373Z,1005.87
2018-12-17T03:17:47.426Z,1005.87
2018-12-17T03:18:47.474Z,1005.92
2018-12-17T03:19:47.524Z,1005.93
2018-12-17T03:20:47.577Z,1005.89
2018-12-17T03:21:47.625Z,1005.90
2018-12-17T03:22:47.676Z,1005.92
2018-12-17T03:23:47.727Z,1005.94
2018-12-17T03:24:47.778Z,1005.91
2018-12-17T03:25:47.852Z,1005.92
2018-12-17T03:26:47.879Z,1005.90
2018-12-17T03:27:47.930Z,1005.93
2018-12-17T03:28:51.625Z,1005.91
2018-12-17T03:29:48.030Z,1005.90
2018-12-17T03:30:48.082Z,1005.86
2018-12-17T03:31:48.132Z,1005.88
2018-12-17T03:32:48.182Z,1005.86
2018-12-17T03:33:48.231Z,1005.92
2018-12-17T03:34:48.283Z,1005.91
2018-12-17T03:35:48.333Z,1005.93
2018-12-17T03:36:48.383Z,1005.92
2018-12-17T03:37:48.433Z,1005.90
2018-12-17T03:38:48.485Z,1005.91
2018-12-17T03:39:48.537Z,1005.90
2018-12-17T03:40:48.608Z,1005.91
2018-12-17T03:41:48.635Z,1005.88
2018-12-17T03:42:48.688Z,1005.86
2018-12-17T03:43:48.738Z,1005.83
2018-12-17T03:44:48.797Z,1005.78
2018-12-17T03:45:48.839Z,1005.76
2018-12-17T03:46:48.888Z,1005.72
2018-12-17T03:47:48.940Z,1005.68
2018-12-17T03:48:48.989Z,1005.68
2018-12-17T03:49:49.044Z,1005.71
2018-12-17T03:50:49.092Z,1005.71
2018-12-17T03:51:49.142Z,1005.76
2018-12-17T03:52:49.192Z,1005.79
2018-12-17T03:53:49.243Z,1005.83
2018-12-17T03:54:49.294Z,1005.82
2018-12-17T03:55:49.350Z,1005.84
2018-12-17T03:56:49.395Z,1005.84
2018-12-17T03:57:49.453Z,1005.90
2018-12-17T03:58:49.494Z,1005.86
2018-12-17T03:59:49.559Z,1005.90
2018-12-17T04:00:49.596Z,1005.90
2018-12-17T04:01:49.645Z,1005.91
2018-12-17T04:02:49.698Z,1005.93
2018-12-17T04:03:49.748Z,1005.98
2018-12-17T04:04:49.797Z,1006.01
2018-12-17T04:05:49.850Z,1006.01
2018-12-17T04:06:49.903Z,1006.00
2018-12-17T04:07:49.951Z,1006.05
2018-12-17T04:08:49.998Z,1006.08
2018-12-17T04:09:50.048Z,1006.09
2018-12-17T04:10:50.101Z,1006.08
2018-12-17T04:11:50.150Z,1006.08
2018-12-17T04:12:50.199Z,1006.07
2018-12-17T04:13:50.251Z,1006.06
2018-12-17T04:14:50.300Z,1006.02
2018-12-17T04:15:50.351Z,1006.02
2018-12-17T04:16:50.401Z,1006.06
2018-12-17T04:17:50.453Z,1006.00
2018-12-17T04:18:50.506Z,1006.03
2018-12-17T04:19:50.553Z,1006.04
2018-12-17T04:20:50.603Z,1005.99
2018-12-17T04:21:50.653Z,1006.02
2018-12-17T04:22:50.709Z,1006.01
2018-12-17T04:23:50.754Z,1006.02
2018-12-17T04:24:50.803Z,1006.03
2018-12-17T04:25:50.861Z,1005.99
2018-12-17T04:26:50.905Z,1006.01
2018-12-17T04:27:50.954Z,1006.05
2018-12-17T04:28:51.004Z,1006.01
2018-12-17T04:29:51.060Z,1006.03
2018-12-17T04:30:51.105Z,1005.99
2018-12-17T04:31:51.156Z,1006.03
2018-12-17T04:32:51.205Z,1006.02
2018-12-17T04:33:51.257Z,1006.03
2018-12-17T04:34:51.307Z,1006.03
2018-12-17T04:35:51.362Z,1005.99
2018-12-17T04:36:51.407Z,1006.05
2018-12-17T04:37:51.462Z,1006.03
2018-12-17T04:38:51.509Z,1006.04
2018-12-17T04:39:51.560Z,1006.06
2018-12-17T04:40:51.608Z,1006.08
2018-12-17T04:41:51.664Z,1006.05
2018-12-17T04:42:51.710Z,1006.08
2018-12-17T04:43:51.762Z,1006.08
2018-12-17T04:44:51.819Z,1006.15
2018-12-17T04:45:51.878Z,1006.12
2018-12-17T04:46:51.912Z,1006.15
2018-12-17T04:47:51.962Z,1006.20
2018-12-17T04:48:52.014Z,1006.17
2018-12-17T04:49:52.061Z,1006.16
2018-12-17T04:50:52.112Z,1006.19
2018-12-17T04:51:52.162Z,1006.21
2018-12-17T04:52:52.212Z,1006.16
2018-12-17T04:53:52.262Z,1006.21
2018-12-17T04:54:52.312Z,1006.23
2018-12-17T04:55:52.362Z,1006.23
2018-12-17T04:56:52.415Z,1006.24
2018-12-17T04:57:52.462Z,1006.27
2018-12-17T04:58:52.529Z,1006.29
2018-12-17T04:59:52.565Z,1006.34
2018-12-17T05:00:52.635Z,1006.34
2018-12-17T05:01:52.665Z,1006.33
2018-12-17T05:02:52.722Z,1006.32
2018-12-17T05:03:52.764Z,1006.37
2018-12-17T05:04:52.814Z,1006.35
2018-12-17T05:05:52.864Z,1006.35
2018-12-17T05:06:52.914Z,1006.40
2018-12-17T05:07:52.966Z,1006.42
2018-12-17T05:08:53.016Z,1006.42
2018-12-17T05:09:53.065Z,1006.44
2018-12-17T05:10:53.155Z,1006.46
2018-12-17T05:11:53.167Z,1006.53
2018-12-17T05:12:53.215Z,1006.52
2018-12-17T05:13:53.271Z,1006.52
2018-12-17T05:14:53.318Z,1006.52
2018-12-17T05:15:53.369Z,1006.54
2018-12-17T05:16:53.416Z,1006.54
2018-12-17T05:17:53.471Z,1006.57
2018-12-17T05:18:53.518Z,1006.56
2018-12-17T05:19:53.567Z,1006.63
2018-12-17T05:20:53.616Z,1006.60
2018-12-17T05:21:53.667Z,1006.63
2018-12-17T05:22:53.719Z,1006.68
2018-12-17T05:23:53.769Z,1006.65
2018-12-17T05:24:53.818Z,1006.70
2018-12-17T05:25:53.868Z,1006.68
2018-12-17T05:26:53.919Z,1006.65
2018-12-17T05:27:53.970Z,1006.69
2018-12-17T05:28:54.018Z,1006.72
2018-12-17T05:29:54.069Z,1006.73
2018-12-17T05:30:54.119Z,1006.72
2018-12-17T05:31:54.172Z,1006.74
2018-12-17T05:32:54.221Z,1006.76
2018-12-17T05:33:54.270Z,1006.75
2018-12-17T05:34:54.319Z,1006.80
2018-12-17T05:35:54.370Z,1006.84
2018-12-17T05:36:54.421Z,1006.88
2018-12-17T05:37:54.471Z,1006.83
2018-12-17T05:38:54.520Z,1006.88
2018-12-17T05:39:54.571Z,1006.88
2018-12-17T05:40:54.621Z,1006.91
2018-12-17T05:41:54.674Z,1006.94
2018-12-17T05:42:54.722Z,1006.94
2018-12-17T05:43:54.776Z,1006.87
2018-12-17T05:44:55.181Z,1006.93
2018-12-17T05:45:55.662Z,1006.98
2018-12-17T05:46:55.519Z,1007.00
2018-12-17T05:47:54.972Z,1007.01
2018-12-17T05:48:55.024Z,1007.03
2018-12-17T05:49:55.073Z,1007.05
2018-12-17T05:50:55.124Z,1007.05
2018-12-17T05:51:55.177Z,1007.08
2018-12-17T05:52:55.222Z,1007.06
2018-12-17T05:53:55.274Z,1007.09
2018-12-17T05:54:55.323Z,1007.10
2018-12-17T05:55:55.756Z,1007.11
2018-12-17T05:56:55.490Z,1007.09
2018-12-17T05:57:56.014Z,1007.11
2018-12-17T05:58:55.647Z,1007.09
2018-12-17T05:59:55.574Z,1007.08
2018-12-17T06:00:55.625Z,1007.06
2018-12-17T06:01:55.675Z,1007.10
2018-12-17T06:02:55.731Z,1007.09
2018-12-17T06:03:55.779Z,1007.10
2018-12-17T06:04:55.826Z,1007.12
2018-12-17T06:05:55.876Z,1007.12
2018-12-17T06:06:55.927Z,1007.09
2018-12-17T06:07:55.978Z,1007.12
2018-12-17T06:08:56.045Z,1007.14
2018-12-17T06:09:56.080Z,1007.12
2018-12-17T06:10:56.131Z,1007.11
2018-12-17T06:11:56.179Z,1007.16
2018-12-17T06:12:56.229Z,1007.15
2018-12-17T06:13:56.278Z,1007.13
2018-12-17T06:14:56.329Z,1007.18
2018-12-17T06:15:56.381Z,1007.16
2018-12-17T06:16:56.430Z,1007.14
2018-12-17T06:17:56.481Z,1007.14
2018-12-17T06:18:56.532Z,1007.13
2018-12-17T06:19:56.585Z,1007.19
2018-12-17T06:20:56.632Z,1007.17
2018-12-17T06:21:56.682Z,1007.18
2018-12-17T06:22:56.734Z,1007.20
2018-12-17T06:23:56.784Z,1007.21
2018-12-17T06:24:56.834Z,1007.19
2018-12-17T06:25:56.884Z,1007.21
2018-12-17T06:26:56.940Z,1007.23
2018-12-17T06:27:56.985Z,1007.26
2018-12-17T06:28:57.037Z,1007.27
2018-12-17T06:29:57.088Z,1007.28
2018-12-17T06:30:57.138Z,1007.30
2018-12-17T06:31:57.189Z,1007.32
2018-12-17T06:32:57.255Z,1007.32
2018-12-17T06:33:57.292Z,1007.35
2018-12-17T06:34:57.341Z,1007.38
2018-12-17T06:35:57.391Z,1007.39
2018-12-17T06:36:57.442Z,1007.38
2018-12-17T06:37:57.491Z,1007.37
2018-12-17T06:38:57.579Z,1007.39
2018-12-17T06:39:57.596Z,1007.38
2018-12-17T06:40:58.439Z,1007.36
2018-12-17T06:41:58.343Z,1007.40
2018-12-17T06:42:57.747Z,1007.38
2018-12-17T06:43:57.799Z,1007.40
2018-12-17T06:44:57.847Z,1007.39
2018-12-17T06:45:57.898Z,1007.42
2018-12-17T06:46:57.949Z,1007.44
2018-12-17T06:47:58.807Z,1007.44
2018-12-17T06:48:58.050Z,1007.42
2018-12-17T06:49:58.101Z,1007.42
2018-12-17T06:50:58.153Z,1007.45
2018-12-17T06:51:58.204Z,1007.42
2018-12-17T06:52:58.252Z,1007.43
2018-12-17T06:53:58.305Z,1007.46
2018-12-17T06:54:58.356Z,1007.44
2018-12-17T06:55:58.407Z,1007.50
2018-12-17T06:56:58.457Z,1007.50
2018-12-17T06:57:58.507Z,1007.52
2018-12-17T06:58:58.562Z,1007.51
2018-12-17T06:59:58.609Z,1007.52
2018-12-17T07:00:58.660Z,1007.50
2018-12-17T07:01:58.711Z,1007.51
2018-12-17T07:02:58.763Z,1007.54
2018-12-17T07:03:58.812Z,1007.55
2018-12-17T07:04:58.864Z,1007.57
2018-12-17T07:05:58.915Z,1007.58
2018-12-17T07:06:58.965Z,1007.62
2018-12-17T07:07:59.017Z,1007.63
2018-12-17T07:08:59.067Z,1007.70
2018-12-17T07:09:59.704Z,1007.70
2018-12-17T07:10:59.171Z,1007.70
2018-12-17T07:11:59.221Z,1007.72
2018-12-17T07:12:59.274Z,1007.73
2018-12-17T07:14:00.224Z,1007.71
2018-12-17T07:14:59.371Z,1007.73
2018-12-17T07:15:59.423Z,1007.75
2018-12-17T07:16:59.473Z,1007.74
2018-12-17T07:17:59.523Z,1007.78
2018-12-17T07:18:59.576Z,1007.77
2018-12-17T07:19:59.625Z,1007.82
2018-12-17T07:20:59.676Z,1007.82
2018-12-17T07:21:59.728Z,1007.86
2018-12-17T07:22:59.780Z,1007.90
2018-12-17T07:23:59.830Z,1007.93
2018-12-17T07:24:59.879Z,1007.95
2018-12-17T07:25:59.930Z,1007.95
2018-12-17T07:26:59.982Z,1007.98
2018-12-17T07:28:00.033Z,1007.95
2018-12-17T07:29:00.081Z,1008.06
2018-12-17T07:30:00.133Z,1008.03
2018-12-17T07:31:00.183Z,1008.03
2018-12-17T07:32:00.233Z,1008.04
2018-12-17T07:33:00.284Z,1008.04
2018-12-17T07:34:00.333Z,1008.07
2018-12-17T07:35:00.384Z,1008.07
2018-12-17T07:36:00.441Z,1008.16
2018-12-17T07:37:00.486Z,1008.19
2018-12-17T07:38:00.535Z,1008.22
2018-12-17T07:39:00.587Z,1008.23
2018-12-17T07:40:00.636Z,1008.26
2018-12-17T07:41:00.689Z,1008.29
2018-12-17T07:42:00.737Z,1008.29
2018-12-17T07:43:00.788Z,1008.30
2018-12-17T07:44:00.839Z,1008.29
2018-12-17T07:45:00.888Z,1008.33
2018-12-17T07:46:00.939Z,1008.35
2018-12-17T07:47:00.990Z,1008.36
2018-12-17T07:48:01.041Z,1008.40
2018-12-17T07:49:01.091Z,1008.40
2018-12-17T07:50:01.141Z,1008.40
2018-12-17T07:51:01.192Z,1008.37
2018-12-17T07:52:01.242Z,1008.42
2018-12-17T07:53:01.297Z,1008.44
2018-12-17T07:54:01.419Z,1008.46
2018-12-17T07:55:01.396Z,1008.49
2018-12-17T07:56:01.446Z,1008.46
2018-12-17T07:57:01.495Z,1008.52
2018-12-17T07:58:01.545Z,1008.55
2018-12-17T07:59:01.596Z,1008.57
2018-12-17T08:00:01.645Z,1008.59
2018-12-17T08:01:01.697Z,1008.61
2018-12-17T08:02:01.748Z,1008.61
2018-12-17T08:03:01.797Z,1008.61
2018-12-17T08:04:01.848Z,1008.65
2018-12-17T08:05:01.900Z,1008.68
2018-12-17T08:06:02.510Z,1008.67
2018-12-17T08:07:02.001Z,1008.75
2018-12-17T08:08:02.051Z,1008.76
2018-12-17T08:09:02.104Z,1008.79
2018-12-17T08:10:02.151Z,1008.74
2018-12-17T08:11:02.203Z,1008.72
2018-12-17T08:12:02.254Z,1008.78
2018-12-17T08:13:02.305Z,1008.80
2018-12-17T08:14:02.355Z,1008.81
2018-12-17T08:15:02.405Z,1008.81
2018-12-17T08:16:02.461Z,1008.80
2018-12-17T08:17:02.934Z,1008.81
2018-12-17T08:18:02.558Z,1008.83
2018-12-17T08:19:02.609Z,1008.83
2018-12-17T08:20:02.660Z,1008.82
2018-12-17T08:21:02.710Z,1008.89
2018-12-17T08:22:02.760Z,1008.86
2018-12-17T08:23:02.811Z,1008.88
2018-12-17T08:24:02.875Z,1008.91
2018-12-17T08:25:02.911Z,1008.91
2018-12-17T08:26:02.962Z,1008.97
2018-12-17T08:27:03.014Z,1008.96
2018-12-17T08:28:03.070Z,1008.99
2018-12-17T08:29:03.116Z,1009.00
2018-12-17T08:30:04.022Z,1009.00
2018-12-17T08:31:03.216Z,1009.00
2018-12-17T08:32:03.268Z,1009.05
2018-12-17T08:33:03.319Z,1009.05
2018-12-17T08:34:03.370Z,1009.06
2018-12-17T08:35:03.420Z,1009.09
2018-12-17T08:36:03.471Z,1009.07
2018-12-17T08:37:03.522Z,1009.08
2018-12-17T08:38:03.572Z,1009.10
2018-12-17T08:39:03.623Z,1009.11
2018-12-17T08:40:03.677Z,1009.09
2018-12-17T08:41:03.725Z,1009.10
2018-12-17T08:42:03.775Z,1009.11
2018-12-17T08:43:03.828Z,1009.08
2018-12-17T08:44:03.886Z,1009.07
2018-12-17T08:45:03.928Z,1009.09
2018-12-17T08:46:03.980Z,1009.07
2018-12-17T08:47:04.030Z,1009.07
2018-12-17T08:48:04.082Z,1009.08
2018-12-17T08:49:04.131Z,1009.09
2018-12-17T08:50:04.199Z,1009.07
2018-12-17T08:51:04.234Z,1009.10
2018-12-17T08:52:04.285Z,1009.14
2018-12-17T08:53:04.339Z,1009.15
2018-12-17T08:54:04.391Z,1009.12
2018-12-17T08:55:04.440Z,1009.14
2018-12-17T08:56:04.490Z,1009.16
2018-12-17T08:57:04.543Z,1009.20
2018-12-17T08:58:04.589Z,1009.19
2018-12-17T08:59:04.979Z,1009.20
2018-12-17T09:00:10.772Z,1009.19
2018-12-17T09:01:04.743Z,1009.23
2018-12-17T09:02:04.794Z,1009.25
2018-12-17T09:03:05.301Z,1009.33
2018-12-17T09:04:04.898Z,1009.36
2018-12-17T09:05:04.950Z,1009.35
2018-12-17T09:06:04.999Z,1009.34
2018-12-17T09:07:05.050Z,1009.35
2018-12-17T09:08:05.104Z,1009.35
2018-12-17T09:09:05.169Z,1009.37
2018-12-17T09:10:05.203Z,1009.41
2018-12-17T09:11:05.254Z,1009.42
2018-12-17T09:12:05.305Z,1009.45
2018-12-17T09:13:05.355Z,1009.44
2018-12-17T09:14:05.408Z,1009.47
2018-12-17T09:15:05.460Z,1009.48
2018-12-17T09:16:05.509Z,1009.47
2018-12-17T09:17:05.559Z,1009.52
2018-12-17T09:18:07.233Z,1009.60
2018-12-17T09:19:05.662Z,1009.64
2018-12-17T09:20:05.714Z,1009.60
2018-12-17T09:21:05.764Z,1009.61
2018-12-17T09:22:05.818Z,1009.63
2018-12-17T09:23:05.866Z,1009.65
2018-12-17T09:24:05.918Z,1009.69
2018-12-17T09:25:05.969Z,1009.71
2018-12-17T09:26:06.019Z,1009.74
2018-12-17T09:27:06.070Z,1009.78
2018-12-17T09:28:09.881Z,1009.82
2018-12-17T09:29:06.172Z,1009.79
2018-12-17T09:30:06.225Z,1009.80
2018-12-17T09:31:06.276Z,1009.84
2018-12-17T09:32:06.328Z,1009.84
2018-12-17T09:33:06.379Z,1009.87
2018-12-17T09:34:06.428Z,1009.92
2018-12-17T09:35:06.480Z,1009.95
2018-12-17T09:36:06.531Z,1009.92
2018-12-17T09:37:06.581Z,1009.97
2018-12-17T09:38:06.632Z,1009.97
2018-12-17T09:39:06.685Z,1009.97
2018-12-17T09:40:06.736Z,1009.95
2018-12-17T09:41:06.787Z,1009.97
2018-12-17T09:42:07.162Z,1009.93
2018-12-17T09:43:07.541Z,1009.93
2018-12-17T09:44:06.940Z,1009.93
2018-12-17T09:45:06.992Z,1009.93
2018-12-17T09:46:07.042Z,1009.91
2018-12-17T09:47:07.095Z,1009.87
2018-12-17T09:48:07.147Z,1009.86
2018-12-17T09:49:07.195Z,1009.96
2018-12-17T09:50:07.247Z,1009.92
2018-12-17T09:51:07.299Z,1009.96
2018-12-17T09:52:07.351Z,1010.01
2018-12-17T09:53:07.405Z,1010.03
2018-12-17T09:54:07.456Z,1010.06
2018-12-17T09:55:07.504Z,1010.06
2018-12-17T09:56:07.556Z,1010.07
2018-12-17T09:57:07.606Z,1010.09
2018-12-17T09:58:07.659Z,1010.08
2018-12-17T09:59:07.710Z,1010.10
2018-12-17T10:00:07.769Z,1010.11
2018-12-17T10:01:07.816Z,1010.13
2018-12-17T10:02:07.865Z,1010.15
2018-12-17T10:03:07.916Z,1010.11
2018-12-17T10:04:07.971Z,1010.15
2018-12-17T10:05:08.021Z,1010.15
2018-12-17T10:06:08.071Z,1010.18
2018-12-17T10:07:08.123Z,1010.20
2018-12-17T10:08:08.175Z,1010.20
2018-12-17T10:09:08.225Z,1010.20
2018-12-17T10:10:08.591Z,1010.25
2018-12-17T10:11:08.332Z,1010.20
2018-12-17T10:12:08.382Z,1010.18
2018-12-17T10:13:08.434Z,1010.23
2018-12-17T10:14:08.486Z,1010.18
2018-12-17T10:15:08.538Z,1010.23
2018-12-17T10:16:08.590Z,1010.29
2018-12-17T10:17:08.642Z,1010.23
2018-12-17T10:18:08.692Z,1010.26
2018-12-17T10:19:08.744Z,1010.23
2018-12-17T10:20:08.797Z,1010.24
2018-12-17T10:21:08.848Z,1010.24
2018-12-17T10:22:08.903Z,1010.29
2018-12-17T10:23:08.952Z,1010.25
2018-12-17T10:24:09.005Z,1010.19
2018-12-17T10:25:09.077Z,1010.21
2018-12-17T10:26:09.108Z,1010.16
2018-12-17T10:27:09.161Z,1010.12
2018-12-17T10:28:09.213Z,1010.09
2018-12-17T10:29:09.268Z,1010.16
2018-12-17T10:30:09.319Z,1010.12
2018-12-17T10:31:09.370Z,1010.11
2018-12-17T10:32:09.422Z,1010.13
2018-12-17T10:33:09.473Z,1010.13
2018-12-17T10:34:09.528Z,1010.07
2018-12-17T10:35:09.578Z,1010.05
2018-12-17T10:36:09.631Z,1010.08
2018-12-17T10:37:09.685Z,1010.08
2018-12-17T10:38:09.736Z,1010.11
2018-12-17T10:39:09.791Z,1010.10
2018-12-17T10:40:09.843Z,1010.14
2018-12-17T10:41:09.893Z,1010.17
2018-12-17T10:42:09.946Z,1010.18
2018-12-17T10:43:10.001Z,1010.14
2018-12-17T10:44:10.053Z,1010.14
2018-12-17T10:45:10.107Z,1010.14
2018-12-17T10:46:10.160Z,1010.19
2018-12-17T10:47:10.239Z,1010.18
2018-12-17T10:48:10.263Z,1010.17
2018-12-17T10:49:10.314Z,1010.18
2018-12-17T10:50:10.366Z,1010.12
2018-12-17T10:51:10.420Z,1010.20
2018-12-17T10:52:10.522Z,1010.22
2018-12-17T10:53:10.524Z,1010.21
2018-12-17T10:54:10.580Z,1010.18
2018-12-17T10:55:10.630Z,1010.17
2018-12-17T10:56:10.687Z,1010.15
2018-12-17T10:57:10.752Z,1010.19
2018-12-17T10:58:10.788Z,1010.19
2018-12-17T10:59:10.842Z,1010.18
2018-12-17T11:00:10.895Z,1010.14
2018-12-17T11:01:10.946Z,1010.14
2018-12-17T11:02:11.002Z,1010.15
2018-12-17T11:03:11.068Z,1010.10
2018-12-17T11:04:11.106Z,1010.12
2018-12-17T11:05:11.159Z,1010.13
2018-12-17T11:06:11.211Z,1010.09
2018-12-17T11:07:11.266Z,1010.11
2018-12-17T11:08:11.318Z,1010.15
2018-12-17T11:09:11.372Z,1010.19
2018-12-17T11:10:11.424Z,1010.21
2018-12-17T11:11:11.481Z,1010.20
2018-12-17T11:12:11.532Z,1010.19
2018-12-17T11:13:11.582Z,1010.17
2018-12-17T11:14:11.637Z,1010.19
2018-12-17T11:15:11.690Z,1010.20
2018-12-17T11:16:11.743Z,1010.21
2018-12-17T11:17:11.810Z,1010.25
2018-12-17T11:18:11.849Z,1010.24
2018-12-17T11:19:11.903Z,1010.23
2018-12-17T11:20:11.954Z,1010.23
2018-12-17T11:21:12.006Z,1010.18
2018-12-17T11:22:12.065Z,1010.25
2018-12-17T11:23:12.117Z,1010.25
2018-12-17T11:24:12.167Z,1010.28
2018-12-17T11:25:12.228Z,1010.24
2018-12-17T11:26:12.274Z,1010.27
2018-12-17T11:27:12.336Z,1010.24
2018-12-17T11:28:12.430Z,1010.21
2018-12-17T11:29:12.435Z,1010.18
2018-12-17T11:30:12.990Z,1010.25
2018-12-17T11:31:12.854Z,1010.22
2018-12-17T11:32:12.635Z,1010.25
2018-12-17T11:33:12.646Z,1010.24
2018-12-17T11:34:12.700Z,1010.28
2018-12-17T11:35:13.082Z,1010.25
2018-12-17T11:36:13.136Z,1010.26
2018-12-17T11:37:12.858Z,1010.27
2018-12-17T11:38:12.912Z,1010.25
2018-12-17T11:39:12.966Z,1010.26
2018-12-17T11:40:13.019Z,1010.26
2018-12-17T11:41:13.072Z,1010.24
2018-12-17T11:42:13.124Z,1010.22
2018-12-17T11:43:13.178Z,1010.22
2018-12-17T11:44:13.259Z,1010.22
2018-12-17T11:45:13.285Z,1010.24
2018-12-17T11:46:13.337Z,1010.26
2018-12-17T11:47:13.394Z,1010.25
2018-12-17T11:48:13.447Z,1010.29
2018-12-17T11:49:13.497Z,1010.30
2018-12-17T11:50:13.550Z,1010.30
2018-12-17T11:51:13.606Z,1010.26
2018-12-17T11:52:13.658Z,1010.29
2018-12-17T11:53:13.711Z,1010.27
2018-12-17T11:54:13.792Z,1010.30
2018-12-17T11:55:13.818Z,1010.35
2018-12-17T11:56:13.871Z,1010.34
2018-12-17T11:57:13.923Z,1010.35
2018-12-17T11:58:13.977Z,1010.39
2018-12-17T11:59:14.031Z,1010.36
2018-12-17T12:00:14.085Z,1010.31
2018-12-17T12:01:14.450Z,1010.33
2018-12-17T12:02:14.191Z,1010.28
2018-12-17T12:03:14.243Z,1010.30
2018-12-17T12:04:14.298Z,1010.27
2018-12-17T12:05:14.351Z,1010.27
2018-12-17T12:06:14.550Z,1010.28